sensor_id;sensor_type;location;lat;lon;timestamp;pressure;altitude;pressure_sealevel;temperature
61189;BMP280;47054;39.716;2.904;2022-12-29T00:00:53;100888.56;;;17.92
61189;BMP280;47054;39.716;2.904;2022-12-29T00:03:38;100882.41;;;17.91
61189;BMP280;47054;39.716;2.904;2022-12-29T00:06:22;100882.41;;;17.91
61189;BMP280;47054;39.716;2.904;2022-12-29T00:09:07;100879.66;;;17.88
61189;BMP280;47054;39.716;2.904;2022-12-29T00:11:52;100886.97;;;17.91
61189;BMP280;47054;39.716;2.904;2022-12-29T00:14:37;100883.91;;;17.89
61189;BMP280;47054;39.716;2.904;2022-12-29T00:17:40;100869.22;;;17.83
61189;BMP280;47054;39.716;2.904;2022-12-29T00:20:25;100882.00;;;17.89
61189;BMP280;47054;39.716;2.904;2022-12-29T00:23:28;100867.03;;;17.88
61189;BMP280;47054;39.716;2.904;2022-12-29T00:26:30;100860.44;;;17.86
61189;BMP280;47054;39.716;2.904;2022-12-29T00:29:33;100843.03;;;17.76
61189;BMP280;47054;39.716;2.904;2022-12-29T00:32:36;100847.69;;;17.79
61189;BMP280;47054;39.716;2.904;2022-12-29T00:35:45;100850.06;;;17.84
61189;BMP280;47054;39.716;2.904;2022-12-29T00:38:32;100842.03;;;17.84
61189;BMP280;47054;39.716;2.904;2022-12-29T00:41:38;100838.16;;;17.82
61189;BMP280;47054;39.716;2.904;2022-12-29T00:44:41;100837.44;;;17.85
61189;BMP280;47054;39.716;2.904;2022-12-29T00:47:28;100847.03;;;17.86
61189;BMP280;47054;39.716;2.904;2022-12-29T00:50:12;100852.41;;;17.86
61189;BMP280;47054;39.716;2.904;2022-12-29T00:52:57;100845.84;;;17.83
61189;BMP280;47054;39.716;2.904;2022-12-29T00:55:42;100847.81;;;17.86
61189;BMP280;47054;39.716;2.904;2022-12-29T00:58:30;100845.91;;;17.87
61189;BMP280;47054;39.716;2.904;2022-12-29T01:01:15;100842.81;;;17.85
61189;BMP280;47054;39.716;2.904;2022-12-29T01:04:00;100831.72;;;17.86
61189;BMP280;47054;39.716;2.904;2022-12-29T01:06:45;100832.84;;;17.85
61189;BMP280;47054;39.716;2.904;2022-12-29T01:09:31;100835.19;;;17.87
61189;BMP280;47054;39.716;2.904;2022-12-29T01:12:34;100826.63;;;17.81
61189;BMP280;47054;39.716;2.904;2022-12-29T01:15:26;100830.81;;;17.79
61189;BMP280;47054;39.716;2.904;2022-12-29T01:18:10;100836.25;;;17.82
61189;BMP280;47054;39.716;2.904;2022-12-29T01:21:04;100825.44;;;17.79
61189;BMP280;47054;39.716;2.904;2022-12-29T01:23:49;100833.56;;;17.82
61189;BMP280;47054;39.716;2.904;2022-12-29T01:26:33;100826.22;;;17.79
61189;BMP280;47054;39.716;2.904;2022-12-29T01:29:18;100833.81;;;17.77
61189;BMP280;47054;39.716;2.904;2022-12-29T01:32:05;100838.56;;;17.84
61189;BMP280;47054;39.716;2.904;2022-12-29T01:34:51;100847.41;;;17.84
61189;BMP280;47054;39.716;2.904;2022-12-29T01:37:36;100837.66;;;17.76
61189;BMP280;47054;39.716;2.904;2022-12-29T01:40:21;100840.50;;;17.83
61189;BMP280;47054;39.716;2.904;2022-12-29T01:43:09;100831.66;;;17.83
61189;BMP280;47054;39.716;2.904;2022-12-29T01:45:55;100836.25;;;17.82
61189;BMP280;47054;39.716;2.904;2022-12-29T01:48:41;100814.56;;;17.72
61189;BMP280;47054;39.716;2.904;2022-12-29T01:51:28;100827.84;;;17.84
61189;BMP280;47054;39.716;2.904;2022-12-29T01:54:19;100831.22;;;17.81
61189;BMP280;47054;39.716;2.904;2022-12-29T01:57:08;100827.34;;;17.78
61189;BMP280;47054;39.716;2.904;2022-12-29T02:02:57;100839.66;;;17.79
61189;BMP280;47054;39.716;2.904;2022-12-29T02:05:47;100824.59;;;17.75
61189;BMP280;47054;39.716;2.904;2022-12-29T02:08:34;100828.53;;;17.81
61189;BMP280;47054;39.716;2.904;2022-12-29T02:11:19;100839.25;;;17.81
61189;BMP280;47054;39.716;2.904;2022-12-29T02:14:12;100828.06;;;17.75
61189;BMP280;47054;39.716;2.904;2022-12-29T02:23:21;100832.72;;;17.78
61189;BMP280;47054;39.716;2.904;2022-12-29T02:42:43;100833.34;;;17.72
61189;BMP280;47054;39.716;2.904;2022-12-29T02:49:11;100821.44;;;17.69
61189;BMP280;47054;39.716;2.904;2022-12-29T02:52:12;100818.81;;;17.73
61189;BMP280;47054;39.716;2.904;2022-12-29T02:54:59;100826.44;;;17.71
61189;BMP280;47054;39.716;2.904;2022-12-29T02:57:45;100818.69;;;17.66
61189;BMP280;47054;39.716;2.904;2022-12-29T03:00:30;100818.75;;;17.69
61189;BMP280;47054;39.716;2.904;2022-12-29T03:09:23;100823.81;;;17.74
61189;BMP280;47054;39.716;2.904;2022-12-29T03:12:31;100812.66;;;17.72
61189;BMP280;47054;39.716;2.904;2022-12-29T03:16:12;100807.19;;;17.65
61189;BMP280;47054;39.716;2.904;2022-12-29T03:19:08;100802.94;;;17.64
61189;BMP280;47054;39.716;2.904;2022-12-29T03:21:57;100802.19;;;17.67
61189;BMP280;47054;39.716;2.904;2022-12-29T03:25:12;100807.56;;;17.67
61189;BMP280;47054;39.716;2.904;2022-12-29T03:28:06;100813.38;;;17.69
61189;BMP280;47054;39.716;2.904;2022-12-29T03:30:57;100806.09;;;17.70
61189;BMP280;47054;39.716;2.904;2022-12-29T03:33:44;100799.97;;;17.69
61189;BMP280;47054;39.716;2.904;2022-12-29T03:36:42;100798.84;;;17.70
61189;BMP280;47054;39.716;2.904;2022-12-29T03:39:28;100789.91;;;17.66
61189;BMP280;47054;39.716;2.904;2022-12-29T03:42:17;100801.09;;;17.68
61189;BMP280;47054;39.716;2.904;2022-12-29T03:45:04;100794.16;;;17.67
61189;BMP280;47054;39.716;2.904;2022-12-29T03:47:51;100781.41;;;17.61
61189;BMP280;47054;39.716;2.904;2022-12-29T03:50:37;100783.88;;;17.69
61189;BMP280;47054;39.716;2.904;2022-12-29T03:53:22;100789.25;;;17.69
61189;BMP280;47054;39.716;2.904;2022-12-29T03:56:07;100786.91;;;17.68
61189;BMP280;47054;39.716;2.904;2022-12-29T03:58:52;100785.00;;;17.68
61189;BMP280;47054;39.716;2.904;2022-12-29T04:01:43;100787.31;;;17.70
61189;BMP280;47054;39.716;2.904;2022-12-29T04:04:28;100788.47;;;17.69
61189;BMP280;47054;39.716;2.904;2022-12-29T04:07:13;100785.00;;;17.68
61189;BMP280;47054;39.716;2.904;2022-12-29T04:10:02;100781.88;;;17.66
61189;BMP280;47054;39.716;2.904;2022-12-29T04:12:49;100791.16;;;17.69
61189;BMP280;47054;39.716;2.904;2022-12-29T04:15:34;100780.75;;;17.67
61189;BMP280;47054;39.716;2.904;2022-12-29T04:18:20;100770.69;;;17.61
61189;BMP280;47054;39.716;2.904;2022-12-29T04:21:05;100769.19;;;17.63
61189;BMP280;47054;39.716;2.904;2022-12-29T04:23:52;100771.13;;;17.66
61189;BMP280;47054;39.716;2.904;2022-12-29T04:26:37;100770.03;;;17.67
61189;BMP280;47054;39.716;2.904;2022-12-29T04:29:38;100762.28;;;17.62
61189;BMP280;47054;39.716;2.904;2022-12-29T04:32:35;100770.75;;;17.64
61189;BMP280;47054;39.716;2.904;2022-12-29T04:35:20;100773.44;;;17.64
61189;BMP280;47054;39.716;2.904;2022-12-29T04:38:05;100766.00;;;17.58
61189;BMP280;47054;39.716;2.904;2022-12-29T04:40:50;100768.84;;;17.65
61189;BMP280;47054;39.716;2.904;2022-12-29T04:43:37;100769.97;;;17.64
61189;BMP280;47054;39.716;2.904;2022-12-29T04:46:32;100768.75;;;17.61
61189;BMP280;47054;39.716;2.904;2022-12-29T04:49:20;100754.09;;;17.55
61189;BMP280;47054;39.716;2.904;2022-12-29T04:52:10;100758.44;;;17.63
61189;BMP280;47054;39.716;2.904;2022-12-29T04:54:55;100769.19;;;17.63
61189;BMP280;47054;39.716;2.904;2022-12-29T04:57:40;100757.13;;;17.54
61189;BMP280;47054;39.716;2.904;2022-12-29T05:00:26;100760.31;;;17.59
61189;BMP280;47054;39.716;2.904;2022-12-29T05:03:11;100763.00;;;17.59
61189;BMP280;47054;39.716;2.904;2022-12-29T05:05:58;100769.53;;;17.62
61189;BMP280;47054;39.716;2.904;2022-12-29T05:08:43;100766.00;;;17.58
61189;BMP280;47054;39.716;2.904;2022-12-29T05:11:28;100774.78;;;17.55
61189;BMP280;47054;39.716;2.904;2022-12-29T05:14:13;100772.88;;;17.55
61189;BMP280;47054;39.716;2.904;2022-12-29T05:16:58;100782.09;;;17.58
61189;BMP280;47054;39.716;2.904;2022-12-29T05:19:43;100784.09;;;17.61
61189;BMP280;47054;39.716;2.904;2022-12-29T05:22:28;100786.78;;;17.61
61189;BMP280;47054;39.716;2.904;2022-12-29T05:25:15;100784.44;;;17.59
61189;BMP280;47054;39.716;2.904;2022-12-29T05:28:12;100788.66;;;17.60
61189;BMP280;47054;39.716;2.904;2022-12-29T05:31:06;100793.09;;;17.53
61189;BMP280;47054;39.716;2.904;2022-12-29T05:33:51;100792.44;;;17.56
61189;BMP280;47054;39.716;2.904;2022-12-29T05:36:35;100793.47;;;17.51
61189;BMP280;47054;39.716;2.904;2022-12-29T05:39:21;100804.66;;;17.57
61189;BMP280;47054;39.716;2.904;2022-12-29T05:42:12;100801.66;;;17.58
61189;BMP280;47054;39.716;2.904;2022-12-29T05:45:17;100786.56;;;17.50
61189;BMP280;47054;39.716;2.904;2022-12-29T05:48:15;100784.66;;;17.51
61189;BMP280;47054;39.716;2.904;2022-12-29T05:51:22;100799.31;;;17.57
61189;BMP280;47054;39.716;2.904;2022-12-29T05:54:09;100797.78;;;17.56
61189;BMP280;47054;39.716;2.904;2022-12-29T05:56:55;100792.44;;;17.56
61189;BMP280;47054;39.716;2.904;2022-12-29T05:59:40;100795.13;;;17.56
61189;BMP280;47054;39.716;2.904;2022-12-29T06:02:25;100798.53;;;17.56
61189;BMP280;47054;39.716;2.904;2022-12-29T06:05:10;100793.38;;;17.48
61189;BMP280;47054;39.716;2.904;2022-12-29T06:08:00;100811.09;;;17.52
61189;BMP280;47054;39.716;2.904;2022-12-29T06:10:45;100813.88;;;17.56
61189;BMP280;47054;39.716;2.904;2022-12-29T06:13:31;100797.63;;;17.49
61189;BMP280;47054;39.716;2.904;2022-12-29T06:16:16;100797.28;;;17.50
61189;BMP280;47054;39.716;2.904;2022-12-29T06:19:01;100808.06;;;17.54
61189;BMP280;47054;39.716;2.904;2022-12-29T06:21:46;100813.44;;;17.54
61189;BMP280;47054;39.716;2.904;2022-12-29T06:24:31;100809.19;;;17.53
61189;BMP280;47054;39.716;2.904;2022-12-29T06:27:15;100810.69;;;17.50
61189;BMP280;47054;39.716;2.904;2022-12-29T06:30:00;100819.16;;;17.52
61189;BMP280;47054;39.716;2.904;2022-12-29T06:32:46;100817.22;;;17.53
61189;BMP280;47054;39.716;2.904;2022-12-29T06:35:31;100807.56;;;17.48
61189;BMP280;47054;39.716;2.904;2022-12-29T06:38:17;100807.16;;;17.46
61189;BMP280;47054;39.716;2.904;2022-12-29T06:41:01;100817.16;;;17.49
61189;BMP280;47054;39.716;2.904;2022-12-29T06:43:46;100820.28;;;17.51
61189;BMP280;47054;39.716;2.904;2022-12-29T06:46:42;100818.41;;;17.52
61189;BMP280;47054;39.716;2.904;2022-12-29T06:49:27;100835.59;;;17.51
61189;BMP280;47054;39.716;2.904;2022-12-29T06:52:12;100820.91;;;17.45
61189;BMP280;47054;39.716;2.904;2022-12-29T06:54:56;100821.75;;;17.49
61189;BMP280;47054;39.716;2.904;2022-12-29T06:57:40;100820.63;;;17.50
61189;BMP280;47054;39.716;2.904;2022-12-29T07:00:25;100809.72;;;17.43
61189;BMP280;47054;39.716;2.904;2022-12-29T07:03:10;100821.75;;;17.49
61189;BMP280;47054;39.716;2.904;2022-12-29T07:05:54;100809.84;;;17.46
61189;BMP280;47054;39.716;2.904;2022-12-29T07:08:39;100809.03;;;17.46
61189;BMP280;47054;39.716;2.904;2022-12-29T07:11:24;100805.53;;;17.42
61189;BMP280;47054;39.716;2.904;2022-12-29T07:14:10;100815.19;;;17.46
61189;BMP280;47054;39.716;2.904;2022-12-29T07:16:55;100818.66;;;17.47
61189;BMP280;47054;39.716;2.904;2022-12-29T07:19:40;100814.31;;;17.42
61189;BMP280;47054;39.716;2.904;2022-12-29T07:22:26;100818.16;;;17.41
61189;BMP280;47054;39.716;2.904;2022-12-29T07:25:11;100821.34;;;17.47
61189;BMP280;47054;39.716;2.904;2022-12-29T07:27:55;100819.00;;;17.45
61189;BMP280;47054;39.716;2.904;2022-12-29T07:30:40;100825.13;;;17.46
61189;BMP280;47054;39.716;2.904;2022-12-29T07:33:27;100833.19;;;17.46
61189;BMP280;47054;39.716;2.904;2022-12-29T07:36:13;100837.78;;;17.45
61189;BMP280;47054;39.716;2.904;2022-12-29T07:38:58;100837.00;;;17.45
61189;BMP280;47054;39.716;2.904;2022-12-29T07:41:43;100824.63;;;17.40
61189;BMP280;47054;39.716;2.904;2022-12-29T07:44:34;100822.66;;;17.37
61189;BMP280;47054;39.716;2.904;2022-12-29T07:47:41;100834.16;;;17.38
61189;BMP280;47054;39.716;2.904;2022-12-29T07:50:25;100829.66;;;17.42
61189;BMP280;47054;39.716;2.904;2022-12-29T07:53:10;100829.22;;;17.40
61189;BMP280;47054;39.716;2.904;2022-12-29T07:55:55;100834.66;;;17.43
61189;BMP280;47054;39.716;2.904;2022-12-29T07:58:41;100841.13;;;17.42
61189;BMP280;47054;39.716;2.904;2022-12-29T08:01:26;100837.97;;;17.37
61189;BMP280;47054;39.716;2.904;2022-12-29T08:04:10;100842.19;;;17.38
61189;BMP280;47054;39.716;2.904;2022-12-29T08:06:54;100844.59;;;17.43
61189;BMP280;47054;39.716;2.904;2022-12-29T08:09:39;100847.56;;;17.38
61189;BMP280;47054;39.716;2.904;2022-12-29T08:12:24;100855.69;;;17.41
61189;BMP280;47054;39.716;2.904;2022-12-29T08:15:10;100860.28;;;17.41
61189;BMP280;47054;39.716;2.904;2022-12-29T08:17:55;100863.75;;;17.41
61189;BMP280;47054;39.716;2.904;2022-12-29T08:20:39;100861.84;;;17.42
61189;BMP280;47054;39.716;2.904;2022-12-29T08:23:25;100868.66;;;17.39
61189;BMP280;47054;39.716;2.904;2022-12-29T08:26:11;100853.63;;;17.35
61189;BMP280;47054;39.716;2.904;2022-12-29T08:28:56;100858.22;;;17.34
61189;BMP280;47054;39.716;2.904;2022-12-29T08:31:40;100870.22;;;17.40
61189;BMP280;47054;39.716;2.904;2022-12-29T08:34:25;100862.84;;;17.37
61189;BMP280;47054;39.716;2.904;2022-12-29T08:37:11;100862.47;;;17.35
61189;BMP280;47054;39.716;2.904;2022-12-29T08:39:56;100871.31;;;17.39
61189;BMP280;47054;39.716;2.904;2022-12-29T08:42:42;100882.03;;;17.39
61189;BMP280;47054;39.716;2.904;2022-12-29T08:45:27;100862.38;;;17.32
61189;BMP280;47054;39.716;2.904;2022-12-29T08:48:12;100872.03;;;17.36
61189;BMP280;47054;39.716;2.904;2022-12-29T08:50:57;100865.06;;;17.32
61189;BMP280;47054;39.716;2.904;2022-12-29T08:53:41;100884.72;;;17.39
61189;BMP280;47054;39.716;2.904;2022-12-29T08:56:26;100872.47;;;17.38
61189;BMP280;47054;39.716;2.904;2022-12-29T08:59:14;100872.72;;;17.33
61189;BMP280;47054;39.716;2.904;2022-12-29T09:02:00;100878.53;;;17.35
61189;BMP280;47054;39.716;2.904;2022-12-29T09:04:46;100887.34;;;17.36
61189;BMP280;47054;39.716;2.904;2022-12-29T09:07:30;100889.66;;;17.37
61189;BMP280;47054;39.716;2.904;2022-12-29T09:10:15;100880.63;;;17.26
61189;BMP280;47054;39.716;2.904;2022-12-29T09:12:59;100899.19;;;17.35
61189;BMP280;47054;39.716;2.904;2022-12-29T09:15:44;100901.81;;;17.31
61189;BMP280;47054;39.716;2.904;2022-12-29T09:18:29;100905.28;;;17.32
61189;BMP280;47054;39.716;2.904;2022-12-29T09:21:14;100914.13;;;17.36
61189;BMP280;47054;39.716;2.904;2022-12-29T09:23:59;100904.88;;;17.33
61189;BMP280;47054;39.716;2.904;2022-12-29T09:26:43;100908.28;;;17.30
61189;BMP280;47054;39.716;2.904;2022-12-29T09:29:28;100907.66;;;17.37
61189;BMP280;47054;39.716;2.904;2022-12-29T09:32:13;100905.28;;;17.32
61189;BMP280;47054;39.716;2.904;2022-12-29T09:34:57;100913.78;;;17.37
61189;BMP280;47054;39.716;2.904;2022-12-29T09:37:42;100904.47;;;17.31
61189;BMP280;47054;39.716;2.904;2022-12-29T09:40:30;100910.34;;;17.37
61189;BMP280;47054;39.716;2.904;2022-12-29T09:43:38;100910.34;;;17.37
61189;BMP280;47054;39.716;2.904;2022-12-29T09:46:34;100891.75;;;17.28
61189;BMP280;47054;39.716;2.904;2022-12-29T09:52:25;100908.34;;;17.34
61189;BMP280;47054;39.716;2.904;2022-12-29T09:55:23;100908.03;;;17.35
61189;BMP280;47054;39.716;2.904;2022-12-29T09:58:21;100902.19;;;17.33
61189;BMP280;47054;39.716;2.904;2022-12-29T10:01:44;100903.78;;;17.34
61189;BMP280;47054;39.716;2.904;2022-12-29T10:04:32;100892.13;;;17.27
61189;BMP280;47054;39.716;2.904;2022-12-29T10:10:35;100900.31;;;17.34
61189;BMP280;47054;39.716;2.904;2022-12-29T10:14:10;100894.16;;;17.33
61189;BMP280;47054;39.716;2.904;2022-12-29T10:16:51;100886.50;;;17.32
61189;BMP280;47054;39.716;2.904;2022-12-29T10:25:58;100877.56;;;17.28
61189;BMP280;47054;39.716;2.904;2022-12-29T10:28:52;100869.53;;;17.28
61189;BMP280;47054;39.716;2.904;2022-12-29T10:34:38;100860.63;;;17.24
61189;BMP280;47054;39.716;2.904;2022-12-29T10:40:27;100859.97;;;17.27
61189;BMP280;47054;39.716;2.904;2022-12-29T10:43:26;100851.50;;;17.25
61189;BMP280;47054;39.716;2.904;2022-12-29T10:46:14;100855.38;;;17.27
61189;BMP280;47054;39.716;2.904;2022-12-29T10:49:02;100863.03;;;17.29
61189;BMP280;47054;39.716;2.904;2022-12-29T10:51:48;100858.91;;;17.31
61189;BMP280;47054;39.716;2.904;2022-12-29T10:54:51;100854.34;;;17.32
61189;BMP280;47054;39.716;2.904;2022-12-29T10:57:41;100867.75;;;17.32
61189;BMP280;47054;39.716;2.904;2022-12-29T11:00:28;100844.66;;;17.27
61189;BMP280;47054;39.716;2.904;2022-12-29T11:06:43;100850.09;;;17.31
61189;BMP280;47054;39.716;2.904;2022-12-29T11:09:30;100837.81;;;17.30
61189;BMP280;47054;39.716;2.904;2022-12-29T11:17:57;100831.72;;;17.33
61189;BMP280;47054;39.716;2.904;2022-12-29T11:20:44;100829.03;;;17.33
61189;BMP280;47054;39.716;2.904;2022-12-29T11:23:37;100821.78;;;17.33
61189;BMP280;47054;39.716;2.904;2022-12-29T11:26:23;100806.09;;;17.32
61189;BMP280;47054;39.716;2.904;2022-12-29T11:31:57;100797.66;;;17.33
61189;BMP280;47054;39.716;2.904;2022-12-29T11:34:43;100801.13;;;17.34
61189;BMP280;47054;39.716;2.904;2022-12-29T11:37:38;100801.56;;;17.36
61189;BMP280;47054;39.716;2.904;2022-12-29T11:40:23;100792.75;;;17.35
61189;BMP280;47054;39.716;2.904;2022-12-29T11:43:26;100779.69;;;17.34
61189;BMP280;47054;39.716;2.904;2022-12-29T11:46:18;100778.91;;;17.33
61189;BMP280;47054;39.716;2.904;2022-12-29T11:49:04;100777.44;;;17.36
61189;BMP280;47054;39.716;2.904;2022-12-29T11:51:51;100769.75;;;17.34
61189;BMP280;47054;39.716;2.904;2022-12-29T11:54:37;100774.00;;;17.35
61189;BMP280;47054;39.716;2.904;2022-12-29T11:57:23;100767.41;;;17.33
61189;BMP280;47054;39.716;2.904;2022-12-29T12:00:23;100755.88;;;17.32
61189;BMP280;47054;39.716;2.904;2022-12-29T12:03:18;100754.44;;;17.35
61189;BMP280;47054;39.716;2.904;2022-12-29T12:06:06;100755.97;;;17.36
61189;BMP280;47054;39.716;2.904;2022-12-29T12:08:55;100740.88;;;17.28
61189;BMP280;47054;39.716;2.904;2022-12-29T12:11:42;100744.16;;;17.37
61189;BMP280;47054;39.716;2.904;2022-12-29T12:14:46;100736.84;;;17.37
61189;BMP280;47054;39.716;2.904;2022-12-29T12:17:57;100736.09;;;17.37
61189;BMP280;47054;39.716;2.904;2022-12-29T12:20:57;100731.50;;;17.37
61189;BMP280;47054;39.716;2.904;2022-12-29T12:24:02;100726.13;;;17.37
61189;BMP280;47054;39.716;2.904;2022-12-29T12:27:12;100721.94;;;17.36
61189;BMP280;47054;39.716;2.904;2022-12-29T12:30:13;100721.94;;;17.36
61189;BMP280;47054;39.716;2.904;2022-12-29T12:33:18;100711.50;;;17.31
61189;BMP280;47054;39.716;2.904;2022-12-29T12:39:16;100706.97;;;17.35
61189;BMP280;47054;39.716;2.904;2022-12-29T12:52:04;100701.16;;;17.33
61189;BMP280;47054;39.716;2.904;2022-12-29T12:55:17;100692.34;;;17.33
61189;BMP280;47054;39.716;2.904;2022-12-29T13:04:27;100680.56;;;17.37
61189;BMP280;47054;39.716;2.904;2022-12-29T13:07:25;100684.75;;;17.35
61189;BMP280;47054;39.716;2.904;2022-12-29T13:16:31;100677.88;;;17.37
61189;BMP280;47054;39.716;2.904;2022-12-29T13:19:34;100669.84;;;17.37
61189;BMP280;47054;39.716;2.904;2022-12-29T13:25:51;100658.72;;;17.35
61189;BMP280;47054;39.716;2.904;2022-12-29T13:38:22;100653.75;;;17.37
61189;BMP280;47054;39.716;2.904;2022-12-29T13:41:24;100650.69;;;17.35
61189;BMP280;47054;39.716;2.904;2022-12-29T13:44:17;100649.47;;;17.33
61189;BMP280;47054;39.716;2.904;2022-12-29T13:47:25;100646.00;;;17.32
61189;BMP280;47054;39.716;2.904;2022-12-29T13:50:15;100656.09;;;17.39
61189;BMP280;47054;39.716;2.904;2022-12-29T13:55:55;100656.53;;;17.41
61189;BMP280;47054;39.716;2.904;2022-12-29T13:58:48;100662.22;;;17.39
61189;BMP280;47054;39.716;2.904;2022-12-29T14:01:39;100661.91;;;17.41
61189;BMP280;47054;39.716;2.904;2022-12-29T14:04:28;100661.91;;;17.41
61189;BMP280;47054;39.716;2.904;2022-12-29T14:07:15;100654.97;;;17.40
61189;BMP280;47054;39.716;2.904;2022-12-29T14:10:00;100653.06;;;17.40
61189;BMP280;47054;39.716;2.904;2022-12-29T14:12:45;100662.28;;;17.43
61189;BMP280;47054;39.716;2.904;2022-12-29T14:15:30;100636.56;;;17.38
61189;BMP280;47054;39.716;2.904;2022-12-29T14:18:21;100651.22;;;17.44
61189;BMP280;47054;39.716;2.904;2022-12-29T14:25:01;100657.38;;;17.45
61189;BMP280;47054;39.716;2.904;2022-12-29T14:30:49;100658.81;;;17.42
61189;BMP280;47054;39.716;2.904;2022-12-29T14:33:34;100659.22;;;17.41
61189;BMP280;47054;39.716;2.904;2022-12-29T14:36:33;100663.06;;;17.43
61189;BMP280;47054;39.716;2.904;2022-12-29T14:42:21;100665.75;;;17.43
61189;BMP280;47054;39.716;2.904;2022-12-29T14:47:58;100678.81;;;17.45
61189;BMP280;47054;39.716;2.904;2022-12-29T14:50:44;100663.06;;;17.43
61189;BMP280;47054;39.716;2.904;2022-12-29T14:53:45;100672.31;;;17.46
61189;BMP280;47054;39.716;2.904;2022-12-29T14:56:31;100672.31;;;17.46
61189;BMP280;47054;39.716;2.904;2022-12-29T14:59:17;100672.63;;;17.41
61189;BMP280;47054;39.716;2.904;2022-12-29T15:02:07;100657.00;;;17.46
61189;BMP280;47054;39.716;2.904;2022-12-29T15:04:59;100668.09;;;17.45
61189;BMP280;47054;39.716;2.904;2022-12-29T15:07:45;100660.84;;;17.45
61189;BMP280;47054;39.716;2.904;2022-12-29T15:10:41;100654.91;;;17.36
61189;BMP280;47054;39.716;2.904;2022-12-29T15:13:35;100668.16;;;17.48
61189;BMP280;47054;39.716;2.904;2022-12-29T15:16:29;100670.84;;;17.48
61189;BMP280;47054;39.716;2.904;2022-12-29T15:19:25;100680.78;;;17.48
61189;BMP280;47054;39.716;2.904;2022-12-29T15:22:10;100681.94;;;17.47
61189;BMP280;47054;39.716;2.904;2022-12-29T15:24:56;100667.31;;;17.44
61189;BMP280;47054;39.716;2.904;2022-12-29T15:27:49;100672.31;;;17.46
61189;BMP280;47054;39.716;2.904;2022-12-29T15:33:40;100685.03;;;17.49
61189;BMP280;47054;39.716;2.904;2022-12-29T15:36:28;100679.16;;;17.43
61189;BMP280;47054;39.716;2.904;2022-12-29T15:39:20;100696.97;;;17.51
61189;BMP280;47054;39.716;2.904;2022-12-29T15:45:06;100678.53;;;17.50
61189;BMP280;47054;39.716;2.904;2022-12-29T15:47:55;100688.47;;;17.49
61189;BMP280;47054;39.716;2.904;2022-12-29T15:50:40;100683.88;;;17.50
61189;BMP280;47054;39.716;2.904;2022-12-29T15:53:29;100681.06;;;17.43
61189;BMP280;47054;39.716;2.904;2022-12-29T15:56:15;100691.59;;;17.51
61189;BMP280;47054;39.716;2.904;2022-12-29T15:59:01;100680.28;;;17.42
61189;BMP280;47054;39.716;2.904;2022-12-29T16:01:46;100686.09;;;17.44
61189;BMP280;47054;39.716;2.904;2022-12-29T16:04:32;100690.03;;;17.50
61189;BMP280;47054;39.716;2.904;2022-12-29T16:07:32;100694.66;;;17.53
61189;BMP280;47054;39.716;2.904;2022-12-29T16:10:39;100698.50;;;17.52
61189;BMP280;47054;39.716;2.904;2022-12-29T16:13:29;100689.97;;;17.47
61189;BMP280;47054;39.716;2.904;2022-12-29T16:16:26;100702.66;;;17.50
61189;BMP280;47054;39.716;2.904;2022-12-29T16:19:17;100702.66;;;17.50
61189;BMP280;47054;39.716;2.904;2022-12-29T16:22:10;100712.94;;;17.48
61189;BMP280;47054;39.716;2.904;2022-12-29T16:24:58;100704.56;;;17.49
61189;BMP280;47054;39.716;2.904;2022-12-29T16:27:44;100698.38;;;17.45
61189;BMP280;47054;39.716;2.904;2022-12-29T16:30:31;100704.56;;;17.49
61189;BMP280;47054;39.716;2.904;2022-12-29T16:33:55;100708.78;;;17.50
61189;BMP280;47054;39.716;2.904;2022-12-29T16:39:44;100686.50;;;17.46
61189;BMP280;47054;39.716;2.904;2022-12-29T16:48:18;100690.34;;;17.45
61189;BMP280;47054;39.716;2.904;2022-12-29T16:51:06;100705.34;;;17.50
61189;BMP280;47054;39.716;2.904;2022-12-29T16:53:56;100700.75;;;17.50
61189;BMP280;47054;39.716;2.904;2022-12-29T16:56:43;100709.22;;;17.52
61189;BMP280;47054;39.716;2.904;2022-12-29T16:59:37;100703.72;;;17.45
61189;BMP280;47054;39.716;2.904;2022-12-29T17:02:24;100706.13;;;17.50
61189;BMP280;47054;39.716;2.904;2022-12-29T17:05:14;100708.72;;;17.47
61189;BMP280;47054;39.716;2.904;2022-12-29T17:07:59;100700.75;;;17.50
61189;BMP280;47054;39.716;2.904;2022-12-29T17:10:45;100698.00;;;17.47
61189;BMP280;47054;39.716;2.904;2022-12-29T17:13:49;100709.84;;;17.46
61189;BMP280;47054;39.716;2.904;2022-12-29T17:16:33;100717.25;;;17.52
61189;BMP280;47054;39.716;2.904;2022-12-29T17:19:39;100718.00;;;17.53
61189;BMP280;47054;39.716;2.904;2022-12-29T17:22:28;100715.72;;;17.51
61189;BMP280;47054;39.716;2.904;2022-12-29T17:25:16;100723.38;;;17.53
61189;BMP280;47054;39.716;2.904;2022-12-29T17:28:18;100715.78;;;17.55
61189;BMP280;47054;39.716;2.904;2022-12-29T17:31:04;100705.97;;;17.43
61189;BMP280;47054;39.716;2.904;2022-12-29T17:33:50;100702.59;;;17.46
61189;BMP280;47054;39.716;2.904;2022-12-29T17:36:36;100686.34;;;17.39
61189;BMP280;47054;39.716;2.904;2022-12-29T17:39:21;100697.66;;;17.48
61189;BMP280;47054;39.716;2.904;2022-12-29T17:42:07;100702.31;;;17.51
61189;BMP280;47054;39.716;2.904;2022-12-29T17:44:54;100711.31;;;17.43
61189;BMP280;47054;39.716;2.904;2022-12-29T17:47:39;100735.28;;;17.52
61189;BMP280;47054;39.716;2.904;2022-12-29T17:50:25;100735.53;;;17.47
61189;BMP280;47054;39.716;2.904;2022-12-29T17:53:13;100754.81;;;17.52
61189;BMP280;47054;39.716;2.904;2022-12-29T17:55:58;100749.69;;;17.47
61189;BMP280;47054;39.716;2.904;2022-12-29T17:58:42;100765.53;;;17.52
61189;BMP280;47054;39.716;2.904;2022-12-29T18:01:29;100756.22;;;17.46
61189;BMP280;47054;39.716;2.904;2022-12-29T18:04:19;100771.31;;;17.54
61189;BMP280;47054;39.716;2.904;2022-12-29T18:07:10;100771.31;;;17.54
61189;BMP280;47054;39.716;2.904;2022-12-29T18:09:54;100783.94;;;17.54
61189;BMP280;47054;39.716;2.904;2022-12-29T18:12:42;100782.81;;;17.55
61189;BMP280;47054;39.716;2.904;2022-12-29T18:15:35;100783.94;;;17.54
61189;BMP280;47054;39.716;2.904;2022-12-29T18:18:22;100779.28;;;17.51